Time;durP1;ratioP1;P1;durP2;ratioP2;P2;SDS_P1;SDS_P2;PMS_P1;PMS_P2;Temp;Humidity;BMP_temperature;BMP_pressure;BME280_temperature;BME280_humidity;BME280_pressure;Samples;Min_cycle;Max_cycle;Signal;HPM_P1;HPM_P2
2020/12/10 00:01:03;;;;;;;61.38;40.83;;;;;;;3.91;55.81;101880.97;4929588;29;20015;-89
2020/12/10 00:03:30;;;;;;;60.90;38.03;;;;;;;4.18;56.13;101961.03;4938297;28;20151;-88
2020/12/10 00:05:57;;;;;;;63.35;37.85;;;;;;;2.18;56.87;101675.13;4937146;29;20481;-85
2020/12/10 00:08:24;;;;;;;54.13;38.42;;;;;;;4.26;56.70;102001.25;4935183;28;20030;-81
2020/12/10 00:10:51;;;;;;;65.63;40.20;;;;;;;4.02;56.58;101939.16;4935928;28;20027;-89
2020/12/10 00:13:18;;;;;;;60.60;39.05;;;;;;;3.18;56.33;101789.81;4936464;28;20103;-86
2020/12/10 00:15:45;;;;;;;55.33;38.50;;;;;;;2.99;56.79;101764.56;4936147;29;20062;-86
2020/12/10 00:18:12;;;;;;;58.10;40.45;;;;;;;3.46;57.07;101853.25;4953511;28;20027;-86
2020/12/10 00:20:39;;;;;;;60.17;39.85;;;;;;;4.39;56.93;101992.47;4936440;29;20126;-86
2020/12/10 00:23:06;;;;;;;53.22;36.00;;;;;;;4.02;57.21;101919.97;4935275;29;20533;-84
2020/12/10 00:25:33;;;;;;;61.30;38.97;;;;;;;3.53;56.94;101828.72;4936945;28;20474;-86
2020/12/10 00:28:00;;;;;;;52.20;37.28;;;;;;;2.49;57.32;101671.66;4953684;28;20031;-86
2020/12/10 00:30:27;;;;;;;58.88;38.50;;;;;;;4.42;57.47;102004.97;4936102;28;20031;-85
2020/12/10 00:32:54;;;;;;;55.92;36.13;;;;;;;3.13;57.70;101776.66;4938279;28;20050;-85
2020/12/10 00:35:21;;;;;;;58.95;37.17;;;;;;;3.63;57.46;101859.50;4972543;28;20031;-84
2020/12/10 00:37:48;;;;;;;58.25;38.05;;;;;;;3.50;57.55;101834.56;4955322;28;20081;-85
2020/12/10 00:40:15;;;;;;;53.85;37.05;;;;;;;3.37;57.00;101807.72;4973193;28;20118;-85
2020/12/10 00:42:42;;;;;;;50.65;36.97;;;;;;;4.34;57.82;101978.44;4944522;29;20426;-80
2020/12/10 00:45:09;;;;;;;65.03;39.85;;;;;;;4.45;57.41;101989.00;4954903;28;20466;-89
2020/12/10 00:47:39;;;;;;;60.13;38.38;;;;;;;4.37;57.33;101980.81;4939186;28;20047;-87
2020/12/10 00:50:08;;;;;;;60.78;40.80;;;;;;;3.44;57.63;101810.63;4942036;28;20035;-84
2020/12/10 00:52:39;;;;;;;57.72;39.33;;;;;;;4.59;57.63;102022.22;4956981;28;20114;-87
2020/12/10 00:55:06;;;;;;;59.65;37.83;;;;;;;3.08;57.71;101785.41;4941153;29;20034;-84
2020/12/10 00:57:33;;;;;;;52.85;37.45;;;;;;;3.64;57.85;101842.03;4943311;29;20094;-86
2020/12/10 01:00:00;;;;;;;63.20;40.60;;;;;;;5.10;57.24;102023.66;4944707;28;20070;-87
2020/12/10 01:02:27;;;;;;;60.72;36.95;;;;;;;3.78;57.56;101839.59;4940654;29;20035;-87
2020/12/10 01:04:54;;;;;;;51.60;35.25;;;;;;;3.19;58.20;101747.72;4937584;28;20390;-87
2020/12/10 01:07:21;;;;;;;50.38;36.05;;;;;;;4.62;57.30;101939.53;4937251;28;20027;-83
2020/12/10 01:09:48;;;;;;;51.92;36.25;;;;;;;5.30;56.10;102013.03;4935456;29;20135;-82
2020/12/10 01:12:15;;;;;;;49.55;37.75;;;;;;;5.11;57.46;101996.00;4948946;28;20098;-83
2020/12/10 01:14:42;;;;;;;55.42;38.22;;;;;;;3.54;58.05;101756.50;4943433;28;20123;-87
2020/12/10 01:17:09;;;;;;;58.97;38.05;;;;;;;3.90;57.13;101786.09;4944585;28;20035;-85
2020/12/10 01:19:36;;;;;;;63.10;39.72;;;;;;;4.53;58.33;101911.34;4916744;29;20024;-78
2020/12/10 01:22:03;;;;;;;59.17;40.60;;;;;;;3.23;58.42;101656.91;4927597;29;20485;-83
2020/12/10 01:24:30;;;;;;;57.10;38.05;;;;;;;4.37;59.21;101827.25;4953571;28;20115;-83
2020/12/10 01:26:57;;;;;;;59.10;38.65;;;;;;;5.39;59.06;101997.31;4935820;29;20031;-85
2020/12/10 01:29:23;;;;;;;55.97;38.90;;;;;;;4.70;58.73;101872.81;4932920;28;20018;-83
2020/12/10 01:31:51;;;;;;;59.15;38.55;;;;;;;4.59;57.66;101798.13;4933199;28;20046;-87
2020/12/10 01:34:19;;;;;;;60.88;41.00;;;;;;;5.86;57.28;101990.72;4932594;28;20545;-83
2020/12/10 01:36:46;;;;;;;56.20;41.95;;;;;;;5.01;57.44;101861.75;4954518;28;20079;-85
2020/12/10 01:39:13;;;;;;;58.05;38.90;;;;;;;4.18;59.22;101774.63;4952311;28;20046;-83
2020/12/10 01:41:40;;;;;;;61.75;43.28;;;;;;;5.00;59.13;101884.72;4952802;28;20375;-84
2020/12/10 01:44:14;;;;;;;57.72;39.75;;;;;;;3.91;59.16;101694.66;4954040;28;20027;-84
2020/12/10 01:46:43;;;;;;;59.00;42.75;;;;;;;5.19;59.43;101924.53;4945713;28;20053;-85
2020/12/10 01:49:10;;;;;;;59.30;41.40;;;;;;;4.65;59.58;101808.34;4957528;28;20544;-84
2020/12/10 01:51:38;;;;;;;67.10;39.97;;;;;;;5.92;58.61;101988.22;4955385;28;20026;-84
2020/12/10 01:54:08;;;;;;;62.97;42.72;;;;;;;5.26;59.05;101867.00;4943816;28;20034;-83
2020/12/10 01:56:35;;;;;;;61.05;44.00;;;;;;;4.59;59.43;101756.13;4957991;28;20069;-83
2020/12/10 01:59:03;;;;;;;64.38;44.13;;;;;;;5.95;59.96;101960.38;4940851;28;20035;-85
2020/12/10 02:01:32;;;;;;;68.35;41.92;;;;;;;4.69;59.08;101737.50;4973037;28;20030;-83
2020/12/10 02:03:59;;;;;;;69.28;42.70;;;;;;;6.16;59.00;101959.63;4953693;28;20030;-85
2020/12/10 02:06:27;;;;;;;58.20;42.88;;;;;;;5.60;59.46;101824.38;4954287;28;20114;-85
2020/12/10 02:08:54;;;;;;;56.33;42.38;;;;;;;6.00;58.70;101854.28;4937745;28;20046;-84
2020/12/10 02:11:24;;;;;;;54.55;41.47;;;;;;;5.06;58.96;101716.53;4954687;28;20031;-82
2020/12/10 02:13:51;;;;;;;55.67;38.15;;;;;;;5.55;59.16;101769.19;4954032;28;20027;-82
2020/12/10 02:16:19;;;;;;;61.95;43.67;;;;;;;5.16;59.52;101715.41;4966781;28;20064;-80
2020/12/10 02:18:46;;;;;;;59.90;39.95;;;;;;;5.14;60.13;101695.53;4949177;28;20045;-87
2020/12/10 02:21:13;;;;;;;57.22;42.97;;;;;;;6.95;58.80;101944.25;4938016;28;20481;-85
2020/12/10 02:23:40;;;;;;;61.72;43.05;;;;;;;6.39;58.36;101838.50;4938085;29;20019;-86
2020/12/10 02:26:07;;;;;;;65.45;43.35;;;;;;;5.72;58.33;101763.47;4967063;28;20035;-86
2020/12/10 02:28:34;;;;;;;66.80;42.83;;;;;;;5.97;59.61;101813.44;4957161;28;20118;-86
2020/12/10 02:31:01;;;;;;;55.90;39.10;;;;;;;6.35;59.63;101845.41;4956958;28;20105;-84
2020/12/10 02:33:28;;;;;;;60.17;42.25;;;;;;;6.54;59.57;101860.44;4938086;28;20051;-84
2020/12/10 02:35:57;;;;;;;56.05;40.75;;;;;;;5.94;59.64;101786.34;4938842;28;20053;-82
2020/12/10 02:38:24;;;;;;;57.97;42.22;;;;;;;6.24;60.35;101805.53;4941776;29;20417;-85
2020/12/10 02:40:51;;;;;;;56.97;41.25;;;;;;;6.25;60.92;101801.72;4954354;28;20034;-83
2020/12/10 02:43:17;;;;;;;57.67;41.47;;;;;;;6.69;61.01;101890.66;4936950;29;20027;-82
2020/12/10 02:45:44;;;;;;;65.28;42.38;;;;;;;6.80;60.62;101882.91;4954319;28;20085;-84
2020/12/10 02:48:11;;;;;;;55.03;38.58;;;;;;;5.70;61.06;101714.19;4938813;28;20515;-82
2020/12/10 02:50:39;;;;;;;58.65;39.38;;;;;;;7.07;60.77;101918.97;4954294;28;20043;-82
2020/12/10 02:53:06;;;;;;;59.47;41.70;;;;;;;6.78;60.95;101836.31;4954677;28;20021;-81
2020/12/10 02:55:34;;;;;;;68.13;43.30;;;;;;;6.62;60.66;101804.44;4953807;28;20098;-82
2020/12/10 02:58:02;;;;;;;56.97;41.88;;;;;;;6.33;61.46;101787.00;4936637;29;20063;-82
2020/12/10 03:00:29;;;;;;;60.88;44.60;;;;;;;6.92;60.87;101844.69;4953743;28;20039;-83
2020/12/10 03:02:56;;;;;;;61.75;42.70;;;;;;;6.50;61.32;101748.22;4929539;28;20058;-84
2020/12/10 03:05:23;;;;;;;56.28;41.85;;;;;;;7.08;61.97;101866.44;4949653;28;20042;-87
2020/12/10 03:07:53;;;;;;;52.78;38.50;;;;;;;6.57;61.97;101777.50;4940734;29;20046;-84
2020/12/10 03:10:20;;;;;;;59.13;40.58;;;;;;;6.50;62.71;101761.97;4952443;28;20030;-83
2020/12/10 03:12:47;;;;;;;56.58;40.50;;;;;;;6.95;62.49;101838.81;4928451;29;20045;-81
2020/12/10 03:15:15;;;;;;;57.58;39.83;;;;;;;7.11;63.10;101857.78;4942805;28;20033;-84
2020/12/10 03:17:42;;;;;;;58.22;38.95;;;;;;;6.10;63.60;101700.06;4919776;29;20028;-84
2020/12/10 03:20:08;;;;;;;59.85;42.10;;;;;;;6.17;63.91;101705.59;4920602;29;20031;-83
2020/12/10 03:22:35;;;;;;;52.47;40.08;;;;;;;6.79;64.96;101799.47;4927941;29;20023;-82
2020/12/10 03:25:03;;;;;;;54.65;42.20;;;;;;;6.95;64.86;101839.63;4940126;29;20019;-83
2020/12/10 03:27:30;;;;;;;58.38;42.20;;;;;;;6.42;64.73;101733.53;4924204;28;20464;-83
2020/12/10 03:29:57;;;;;;;54.05;39.25;;;;;;;6.00;65.16;101672.00;4926869;29;20202;-81
2020/12/10 03:32:25;;;;;;;53.15;40.55;;;;;;;6.09;65.23;101681.84;4921064;28;20036;-82
2020/12/10 03:34:52;;;;;;;53.45;38.88;;;;;;;7.07;65.31;101797.81;4944964;28;20039;-86
2020/12/10 03:37:22;;;;;;;51.10;37.08;;;;;;;6.02;65.58;101631.44;4944886;28;20027;-84
2020/12/10 03:39:49;;;;;;;55.28;40.30;;;;;;;6.92;65.66;101809.75;4937202;28;20114;-83
2020/12/10 03:42:16;;;;;;;57.10;42.50;;;;;;;6.70;66.51;101763.00;4951596;28;20034;-82
2020/12/10 03:44:43;;;;;;;53.72;39.28;;;;;;;7.14;65.34;101770.28;4940360;28;20027;-83
2020/12/10 03:47:10;;;;;;;52.65;39.17;;;;;;;6.61;65.06;101676.16;4957150;28;20066;-81
2020/12/10 03:49:37;;;;;;;54.15;40.20;;;;;;;7.62;65.11;101827.38;4952328;28;20074;-84
2020/12/10 03:52:05;;;;;;;53.80;39.58;;;;;;;6.33;64.52;101597.22;4952969;28;20023;-84
2020/12/10 03:54:32;;;;;;;49.78;39.22;;;;;;;6.26;65.11;101594.44;4953374;28;20054;-86
2020/12/10 03:57:01;;;;;;;56.80;39.95;;;;;;;7.25;64.94;101712.72;4934846;29;20421;-85
2020/12/10 03:59:29;;;;;;;50.92;39.80;;;;;;;7.31;65.78;101754.31;4927837;29;20038;-83
2020/12/10 04:01:56;;;;;;;55.20;39.17;;;;;;;7.41;64.47;101707.09;4902024;29;20031;-83
2020/12/10 04:04:23;;;;;;;51.03;39.70;;;;;;;7.51;66.86;101780.03;4952630;28;20038;-85
2020/12/10 04:06:51;;;;;;;58.72;39.45;;;;;;;7.17;66.88;101734.94;4936161;28;20532;-84
2020/12/10 04:09:18;;;;;;;54.15;38.95;;;;;;;7.14;67.48;101749.13;4951897;28;20030;-82
2020/12/10 04:11:46;;;;;;;53.22;38.78;;;;;;;7.09;67.57;101754.38;4937637;28;20036;-83
2020/12/10 04:14:14;;;;;;;63.65;44.28;;;;;;;6.36;67.75;101626.22;4931997;28;20549;-83
2020/12/10 04:16:42;;;;;;;59.63;42.70;;;;;;;5.79;69.05;101557.41;4957704;28;20070;-85
2020/12/10 04:19:08;;;;;;;55.40;40.35;;;;;;;6.39;69.26;101662.44;4948552;28;20023;-84
2020/12/10 04:21:35;;;;;;;53.28;39.00;;;;;;;7.14;68.84;101768.41;4932725;29;20027;-85
2020/12/10 04:24:04;;;;;;;72.63;43.38;;;;;;;6.19;68.73;101598.16;4935531;28;20027;-83
2020/12/10 04:26:34;;;;;;;53.63;41.78;;;;;;;6.40;68.33;101614.63;4953010;28;20560;-82
2020/12/10 04:29:01;;;;;;;55.72;41.60;;;;;;;7.50;68.56;101777.50;4947189;28;20043;-85
2020/12/10 04:31:28;;;;;;;53.30;40.50;;;;;;;7.29;68.16;101731.59;4935469;28;20450;-84
2020/12/10 04:33:57;;;;;;;52.35;40.67;;;;;;;6.12;67.84;101516.47;4952978;28;20035;-85
2020/12/10 04:36:25;;;;;;;56.45;41.80;;;;;;;8.00;66.60;101770.91;4952396;28;20044;-84
2020/12/10 04:38:52;;;;;;;55.45;41.53;;;;;;;7.79;66.92;101729.47;4916916;28;20039;-87
2020/12/10 04:41:20;;;;;;;62.17;41.47;;;;;;;7.42;67.47;101706.03;4929160;29;20088;-87
2020/12/10 04:43:47;;;;;;;55.47;42.42;;;;;;;8.15;67.74;101810.19;4917512;29;20070;-86
2020/12/10 04:46:16;;;;;;;63.15;45.13;;;;;;;8.35;66.87;101799.22;4952858;28;20028;-83
2020/12/10 04:48:44;;;;;;;55.72;41.85;;;;;;;7.51;67.55;101668.97;4935770;29;20047;-85
2020/12/10 04:51:11;;;;;;;60.63;43.20;;;;;;;7.93;66.48;101702.81;4950852;28;20039;-85
2020/12/10 04:53:38;;;;;;;65.72;44.45;;;;;;;8.30;67.04;101752.09;4953633;28;20031;-82
2020/12/10 04:56:07;;;;;;;64.85;43.72;;;;;;;8.57;66.82;101793.53;4952454;28;20035;-84
2020/12/10 04:58:35;;;;;;;62.13;44.50;;;;;;;8.51;66.80;101760.38;4944881;28;20028;-85
2020/12/10 05:01:03;;;;;;;63.55;42.63;;;;;;;8.00;66.79;101702.81;4935961;28;20356;-86
2020/12/10 05:03:32;;;;;;;66.30;44.17;;;;;;;8.46;67.76;101781.16;4933039;29;20039;-85
2020/12/10 05:06:12;;;;;;;58.88;42.72;;;;;;;8.19;67.25;101727.88;4944946;28;20035;-85
2020/12/10 05:08:39;;;;;;;47.35;32.28;;;;;;;7.89;69.59;101750.28;4939551;28;20035;-85
2020/12/10 05:11:11;;;;;;;69.78;46.08;;;;;;;7.75;69.46;101694.25;4958830;28;20045;-84
2020/12/10 05:13:43;;;;;;;78.82;50.35;;;;;;;7.42;68.46;101618.69;4935329;29;20415;-84
2020/12/10 05:16:27;;;;;;;68.13;47.50;;;;;;;7.90;68.68;101716.16;4952571;28;20050;-85
2020/12/10 05:18:55;;;;;;;78.88;49.45;;;;;;;7.89;69.08;101707.03;4955552;28;20077;-85
2020/12/10 05:21:22;;;;;;;84.05;52.92;;;;;;;7.73;68.96;101696.38;4923320;28;20027;-87
2020/12/10 05:23:49;;;;;;;88.82;52.97;;;;;;;8.17;68.50;101738.28;4939711;28;20118;-84
2020/12/10 05:26:19;;;;;;;88.95;53.95;;;;;;;7.56;67.40;101632.53;4940593;29;20039;-87
2020/12/10 05:28:50;;;;;;;84.70;52.38;;;;;;;7.81;68.13;101688.75;4956257;28;20066;-86
2020/12/10 05:31:22;;;;;;;85.75;56.33;;;;;;;8.66;67.51;101779.53;4939730;29;20495;-85
2020/12/10 05:34:00;;;;;;;99.10;57.10;;;;;;;8.41;67.53;101771.84;4938784;28;20042;-86
2020/12/10 05:36:29;;;;;;;105.53;63.95;;;;;;;7.95;66.92;101749.47;4956351;28;20497;-86
2020/12/10 05:39:05;;;;;;;81.18;50.75;;;;;;;7.68;65.63;101716.31;4956100;28;20035;-87
2020/12/10 05:41:34;;;;;;;122.22;64.88;;;;;;;7.85;66.33;101782.94;4943373;28;20054;-87
2020/12/10 05:44:20;;;;;;;111.80;65.60;;;;;;;6.32;65.77;101567.16;4955876;28;20041;-86
2020/12/10 05:46:53;;;;;;;126.38;68.43;;;;;;;7.60;65.38;101757.84;4955734;28;20043;-85
2020/12/10 05:49:20;;;;;;;111.97;66.45;;;;;;;7.76;64.87;101790.56;4954309;28;20053;-86
2020/12/10 05:51:51;;;;;;;117.53;69.60;;;;;;;7.34;65.17;101709.81;4951448;28;20101;-82
2020/12/10 05:54:19;;;;;;;112.20;66.05;;;;;;;7.16;65.08;101680.91;4966928;28;20032;-84
2020/12/10 05:57:02;;;;;;;119.35;67.55;;;;;;;6.93;65.34;101643.50;4950580;28;20167;-84
2020/12/10 05:59:31;;;;;;;107.57;63.97;;;;;;;7.18;66.03;101714.59;4934007;29;20140;-82
2020/12/10 06:02:03;;;;;;;116.65;66.38;;;;;;;6.82;66.39;101663.34;4952647;28;20139;-85
2020/12/10 06:04:31;;;;;;;116.55;65.72;;;;;;;7.12;66.14;101676.84;4938121;29;20512;-83
2020/12/10 06:06:59;;;;;;;112.70;67.88;;;;;;;6.62;65.36;101545.75;4956264;28;20102;-85
2020/12/10 06:09:27;;;;;;;121.20;72.05;;;;;;;7.84;65.37;101725.25;4938793;28;20043;-82
2020/12/10 06:12:02;;;;;;;113.65;67.50;;;;;;;7.47;64.31;101646.50;4922428;28;20031;-83
2020/12/10 06:14:29;;;;;;;120.18;67.82;;;;;;;7.63;64.77;101688.50;4929910;28;20031;-83
2020/12/10 06:17:09;;;;;;;110.20;64.50;;;;;;;7.28;64.93;101650.00;4949907;28;20057;-83
2020/12/10 06:19:39;;;;;;;113.22;63.42;;;;;;;7.64;65.26;101692.97;4954904;28;20099;-84
2020/12/10 06:22:44;;;;;;;115.85;67.38;;;;;;;8.42;63.90;101774.38;4943744;28;20473;-83
2020/12/10 06:25:31;;;;;;;110.10;64.03;;;;;;;8.13;64.62;101748.88;4974335;28;20113;-83
2020/12/10 06:28:19;;;;;;;97.60;62.45;;;;;;;8.34;65.36;101774.59;4950016;28;20071;-82
2020/12/10 06:31:07;;;;;;;100.45;61.22;;;;;;;8.30;64.56;101779.69;4938409;28;20035;-82
2020/12/10 06:33:47;;;;;;;109.10;63.53;;;;;;;7.62;65.01;101667.53;4957299;28;20034;-83
2020/12/10 06:36:26;;;;;;;108.05;64.30;;;;;;;8.35;64.96;101776.28;4975256;28;20121;-85
2020/12/10 06:38:58;;;;;;;103.80;59.85;;;;;;;8.20;65.64;101774.56;4958571;28;20039;-85
2020/12/10 06:41:25;;;;;;;113.85;68.80;;;;;;;7.63;65.35;101669.22;4938068;28;20086;-84
2020/12/10 06:44:00;;;;;;;97.50;59.20;;;;;;;8.32;64.46;101755.47;4925776;29;20027;-85
2020/12/10 06:46:27;;;;;;;104.63;60.45;;;;;;;8.04;65.60;101739.09;4933767;28;20070;-84
2020/12/10 06:48:56;;;;;;;92.53;53.78;;;;;;;7.46;66.27;101710.94;4932910;28;20031;-83
2020/12/10 06:51:23;;;;;;;104.75;58.25;;;;;;;7.83;66.72;101796.09;4928978;28;20123;-84
2020/12/10 06:54:05;;;;;;;91.47;55.70;;;;;;;8.03;65.89;101784.28;4959974;28;20106;-84
2020/12/10 06:56:54;;;;;;;102.10;60.00;;;;;;;7.98;67.07;101778.53;4954240;28;20066;-85
2020/12/10 06:59:41;;;;;;;101.32;62.15;;;;;;;7.81;66.79;101752.16;4951429;28;20037;-84
2020/12/10 07:02:13;;;;;;;100.50;61.08;;;;;;;7.83;67.28;101795.25;4973804;28;20128;-85
2020/12/10 07:04:50;;;;;;;115.07;61.72;;;;;;;7.44;66.69;101698.41;4975738;28;20026;-85
2020/12/10 07:07:22;;;;;;;106.13;60.58;;;;;;;7.55;66.46;101721.75;4942490;28;20404;-85
2020/12/10 07:09:51;;;;;;;110.80;61.00;;;;;;;7.86;65.83;101758.97;4959614;28;20026;-82
2020/12/10 07:12:19;;;;;;;111.23;60.53;;;;;;;7.33;65.62;101673.16;4960799;28;20023;-85
2020/12/10 07:14:47;;;;;;;103.47;65.80;;;;;;;7.57;66.05;101700.34;4959022;28;20493;-86
2020/12/10 07:17:14;;;;;;;113.55;60.22;;;;;;;8.03;65.75;101790.63;4939952;28;20042;-86
2020/12/10 07:19:54;;;;;;;96.57;57.58;;;;;;;7.27;66.58;101685.00;4954232;28;20030;-82
2020/12/10 07:22:21;;;;;;;106.53;63.05;;;;;;;7.66;67.29;101779.03;4950525;28;20043;-84
2020/12/10 07:24:48;;;;;;;113.93;64.65;;;;;;;6.88;68.07;101648.78;4956026;28;20121;-84
2020/12/10 07:27:15;;;;;;;111.00;66.57;;;;;;;7.22;68.40;101732.44;4945422;29;20031;-85
2020/12/10 07:29:48;;;;;;;110.22;64.00;;;;;;;7.71;68.73;101820.63;4960721;28;20042;-85
2020/12/10 07:32:18;;;;;;;109.53;65.28;;;;;;;6.88;68.35;101679.06;4948337;28;20035;-85
2020/12/10 07:34:46;;;;;;;109.82;63.67;;;;;;;6.97;69.12;101724.63;4975818;28;20023;-85
2020/12/10 07:37:15;;;;;;;110.43;63.83;;;;;;;6.88;68.92;101690.06;4961242;28;20042;-85
2020/12/10 07:39:43;;;;;;;125.53;68.15;;;;;;;7.70;68.74;101816.19;4955075;28;20091;-85
2020/12/10 07:42:18;;;;;;;110.57;61.33;;;;;;;7.21;68.95;101744.50;4941526;28;20035;-83
2020/12/10 07:44:45;;;;;;;110.35;64.13;;;;;;;6.96;68.90;101698.16;4941042;28;20027;-84
2020/12/10 07:47:13;;;;;;;114.68;68.38;;;;;;;7.64;67.92;101787.53;4957843;28;20520;-84
2020/12/10 07:49:41;;;;;;;119.25;68.40;;;;;;;7.04;69.08;101732.97;4943453;28;20392;-85
2020/12/10 07:52:11;;;;;;;118.78;65.50;;;;;;;7.48;68.85;101777.69;4941957;28;20122;-83
2020/12/10 07:54:58;;;;;;;125.35;65.68;;;;;;;6.94;68.04;101688.41;4976564;28;20078;-85
2020/12/10 07:57:30;;;;;;;116.90;65.70;;;;;;;7.88;67.39;101792.72;4958752;28;20058;-86
2020/12/10 08:00:09;;;;;;;122.43;68.75;;;;;;;7.10;68.25;101662.44;4965010;28;20109;-85
2020/12/10 08:02:39;;;;;;;110.90;67.15;;;;;;;7.81;67.96;101782.50;4949226;28;20033;-85
2020/12/10 08:05:19;;;;;;;120.47;71.25;;;;;;;7.65;68.43;101794.75;4955166;28;20022;-84
2020/12/10 08:07:54;;;;;;;86.85;51.45;;;;;;;7.44;68.99;101759.88;4913368;28;20054;-85
2020/12/10 08:10:26;;;;;;;121.30;73.68;;;;;;;7.36;69.30;101740.75;4928552;28;20047;-84
2020/12/10 08:13:26;;;;;;;124.18;71.63;;;;;;;7.66;69.27;101785.41;4968546;28;20046;-86
2020/12/10 08:15:54;;;;;;;120.75;71.65;;;;;;;7.37;68.92;101742.47;4936779;28;20043;-85
2020/12/10 08:18:28;;;;;;;117.93;69.78;;;;;;;7.59;69.96;101790.03;4951003;28;20066;-84
2020/12/10 08:20:55;;;;;;;139.13;74.40;;;;;;;7.00;70.07;101704.13;4957497;28;20028;-86
2020/12/10 08:23:29;;;;;;;127.68;72.70;;;;;;;6.30;70.08;101603.09;4952126;28;20046;-85
2020/12/10 08:26:11;;;;;;;121.28;67.88;;;;;;;7.58;69.92;101809.53;4952728;28;20023;-85
2020/12/10 08:28:38;;;;;;;128.82;69.80;;;;;;;7.78;69.14;101820.66;4932739;28;20045;-85
2020/12/10 08:31:05;;;;;;;138.10;74.88;;;;;;;6.84;69.74;101683.28;4935054;28;20035;-85
2020/12/10 08:33:41;;;;;;;121.72;72.20;;;;;;;7.23;69.52;101758.91;4952624;28;20034;-86
2020/12/10 08:36:08;;;;;;;129.50;74.93;;;;;;;6.34;70.12;101631.91;4935536;28;20094;-86
2020/12/10 08:38:55;;;;;;;131.32;75.55;;;;;;;7.07;70.34;101740.81;4935458;28;20027;-86
2020/12/10 08:41:33;;;;;;;128.90;69.43;;;;;;;7.02;70.08;101712.19;4951753;28;20489;-85
2020/12/10 08:44:03;;;;;;;128.80;73.47;;;;;;;7.21;69.98;101739.00;4955369;28;20093;-85
2020/12/10 08:46:38;;;;;;;130.10;75.20;;;;;;;7.78;69.21;101799.47;4955118;28;20396;-85
2020/12/10 08:49:23;;;;;;;130.77;73.63;;;;;;;6.76;69.72;101643.00;4930943;28;20042;-85
2020/12/10 08:51:50;;;;;;;133.88;77.13;;;;;;;6.77;70.50;101672.22;4954905;28;20380;-85
2020/12/10 08:54:19;;;;;;;134.65;74.38;;;;;;;6.96;70.35;101695.41;4954843;28;20066;-86
2020/12/10 08:57:07;;;;;;;130.27;76.90;;;;;;;7.47;71.01;101775.13;4973894;28;20457;-84
2020/12/10 08:59:36;;;;;;;138.23;78.63;;;;;;;7.39;71.32;101778.94;4942227;28;20042;-82
2020/12/10 09:02:08;;;;;;;136.52;77.40;;;;;;;7.36;71.29;101762.78;4957879;28;20099;-85
2020/12/10 09:04:36;;;;;;;131.60;76.32;;;;;;;6.69;71.21;101653.09;4963103;28;20074;-80
2020/12/10 09:07:08;;;;;;;135.80;76.93;;;;;;;6.78;71.25;101684.91;4968695;28;20037;-80
2020/12/10 09:09:35;;;;;;;127.53;72.80;;;;;;;7.06;71.10;101710.69;4947040;28;20482;-85
2020/12/10 09:12:03;;;;;;;126.45;74.18;;;;;;;6.91;71.66;101711.69;4934069;29;20097;-84
2020/12/10 09:14:30;;;;;;;135.10;77.15;;;;;;;6.96;72.05;101731.19;4935171;29;20028;-83
2020/12/10 09:16:57;;;;;;;137.52;79.20;;;;;;;7.39;72.10;101812.00;4932778;28;20490;-85
2020/12/10 09:19:24;;;;;;;137.48;77.90;;;;;;;7.27;72.47;101778.66;4953080;28;20509;-83
2020/12/10 09:21:53;;;;;;;140.75;81.53;;;;;;;7.26;72.04;101754.91;4951078;29;20051;-84
2020/12/10 09:24:21;;;;;;;146.38;81.00;;;;;;;6.88;72.46;101695.56;4934997;29;20040;-83
2020/12/10 09:26:47;;;;;;;150.10;83.95;;;;;;;6.53;72.48;101665.25;4934849;28;20024;-85
2020/12/10 09:29:38;;;;;;;152.70;85.63;;;;;;;7.01;72.46;101721.50;4933627;28;20039;-85
2020/12/10 09:32:05;;;;;;;140.00;81.50;;;;;;;6.61;72.71;101659.63;4949190;28;20032;-85
2020/12/10 09:34:32;;;;;;;138.90;82.30;;;;;;;6.15;71.93;101560.09;4935572;28;20086;-82
2020/12/10 09:37:21;;;;;;;147.32;79.18;;;;;;;6.93;72.19;101690.31;4929950;29;20035;-83
2020/12/10 09:39:48;;;;;;;145.90;82.97;;;;;;;6.67;72.73;101655.22;4916594;29;20426;-81
2020/12/10 09:42:15;;;;;;;146.68;79.75;;;;;;;7.07;72.00;101707.75;4934593;29;20028;-84
2020/12/10 09:44:51;;;;;;;155.80;89.53;;;;;;;6.85;72.17;101690.47;4954441;28;20089;-83
2020/12/10 09:47:18;;;;;;;144.00;83.28;;;;;;;7.05;72.46;101706.25;4930700;29;20086;-86
2020/12/10 09:49:54;;;;;;;152.70;86.15;;;;;;;7.58;72.40;101804.03;4932488;29;20030;-86
2020/12/10 09:52:22;;;;;;;155.30;86.57;;;;;;;7.34;72.38;101760.25;4930760;29;20032;-83
2020/12/10 09:55:00;;;;;;;147.50;86.65;;;;;;;6.62;72.08;101624.69;4929065;29;20406;-86
2020/12/10 09:57:31;;;;;;;161.52;91.22;;;;;;;7.30;73.17;101792.00;4915950;29;20040;-86
2020/12/10 10:00:08;;;;;;;150.02;84.45;;;;;;;6.46;74.02;101658.88;4932395;29;20035;-87
2020/12/10 10:02:37;;;;;;;152.50;89.63;;;;;;;7.02;74.24;101786.53;4930212;29;20038;-86
2020/12/10 10:05:04;;;;;;;167.98;93.32;;;;;;;7.12;74.22;101792.53;4914045;29;20060;-87
2020/12/10 10:07:31;;;;;;;164.55;92.35;;;;;;;5.88;74.54;101625.78;4933483;29;20027;-86
2020/12/10 10:09:58;;;;;;;171.10;94.63;;;;;;;7.15;74.46;101822.44;4934000;29;20036;-86
2020/12/10 10:12:28;;;;;;;158.73;87.43;;;;;;;7.35;73.68;101805.16;4934143;29;20422;-84
2020/12/10 10:14:55;;;;;;;;;;;;;;;7.33;74.06;101804.53;4903625;29;20048;-85
2020/12/10 10:17:23;;;;;;;157.32;85.65;;;;;;;6.84;74.53;101752.09;4938947;28;19927;-85
2020/12/10 10:19:50;;;;;;;152.90;86.22;;;;;;;6.79;74.03;101735.31;4935296;29;20062;-85
2020/12/10 10:22:18;;;;;;;153.52;86.15;;;;;;;6.14;74.27;101651.00;4935765;29;20031;-88
2020/12/10 10:24:45;;;;;;;165.02;89.97;;;;;;;7.26;73.69;101805.34;4941121;29;20110;-86
2020/12/10 10:27:12;;;;;;;160.38;88.70;;;;;;;6.32;73.88;101664.28;4934193;29;20032;-85
2020/12/10 10:29:39;;;;;;;173.77;91.47;;;;;;;5.85;73.23;101598.72;4937063;29;20036;-87
2020/12/10 10:32:15;;;;;;;159.27;89.32;;;;;;;7.16;73.88;101824.13;4937874;29;20139;-87
2020/12/10 10:34:42;;;;;;;167.10;91.80;;;;;;;6.86;73.79;101777.53;4934900;29;20032;-87
2020/12/10 10:37:09;;;;;;;159.60;90.35;;;;;;;7.13;74.59;101824.50;4934396;29;20486;-87
2020/12/10 10:39:38;;;;;;;171.55;96.65;;;;;;;6.88;75.12;101816.69;4934855;29;20111;-87
2020/12/10 10:42:06;;;;;;;173.18;95.45;;;;;;;6.69;74.92;101798.97;4915992;29;20043;-86
2020/12/10 10:44:53;;;;;;;166.75;95.03;;;;;;;6.52;74.61;101768.97;4935903;29;20034;-86
2020/12/10 10:47:20;;;;;;;154.48;91.65;;;;;;;5.41;73.50;101548.41;4926940;29;20059;-88
2020/12/10 10:49:47;;;;;;;152.77;86.43;;;;;;;6.16;73.50;101682.75;4943609;29;20027;-86
2020/12/10 10:52:28;;;;;;;169.73;88.53;;;;;;;6.79;74.08;101795.88;4935048;29;20079;-87
2020/12/10 10:55:12;;;;;;;168.77;91.38;;;;;;;5.97;74.75;101661.38;4932844;29;20052;-85
2020/12/10 10:57:39;;;;;;;167.20;91.88;;;;;;;6.34;74.91;101750.19;4929491;29;20134;-86
2020/12/10 11:00:13;;;;;;;175.65;91.97;;;;;;;6.85;74.96;101811.59;4930423;29;20024;-83
2020/12/10 11:02:41;;;;;;;159.82;91.50;;;;;;;7.01;74.53;101849.00;4925357;29;20040;-85
2020/12/10 11:05:08;;;;;;;169.90;97.75;;;;;;;6.76;74.86;101821.06;4938261;29;20059;-85
2020/12/10 11:07:43;;;;;;;163.27;94.05;;;;;;;6.88;75.28;101849.75;4947717;28;20032;-85
2020/12/10 11:10:22;;;;;;;166.53;93.63;;;;;;;6.89;75.05;101853.34;4919092;29;20028;-85
2020/12/10 11:12:56;;;;;;;163.40;87.43;;;;;;;7.02;73.86;101861.72;4917749;29;20315;-85
2020/12/10 11:15:22;;;;;;;161.40;88.85;;;;;;;6.19;74.49;101747.53;4930137;29;20030;-84
2020/12/10 11:17:49;;;;;;;157.95;90.43;;;;;;;6.13;74.48;101738.13;4951347;28;20059;-85
2020/12/10 11:20:23;;;;;;;170.63;97.93;;;;;;;6.49;74.30;101801.53;4935473;28;20493;-87
2020/12/10 11:22:50;;;;;;;161.93;95.05;;;;;;;6.81;74.61;101851.59;4922984;29;20094;-86
2020/12/10 11:25:18;;;;;;;177.95;98.45;;;;;;;6.30;75.52;101806.63;4954368;29;20139;-88
2020/12/10 11:28:02;;;;;;;163.00;94.30;;;;;;;6.30;74.98;101799.25;4934526;29;20039;-86